Time;durP1;ratioP1;P1;durP2;ratioP2;P2;SDS_P1;SDS_P2;PMS_P1;PMS_P2;Temp;Humidity;BMP_temperature;BMP_pressure;BME280_temperature;BME280_humidity;BME280_pressure;Samples;Min_cycle;Max_cycle;Signal;HPM_P1;HPM_P2
2023/06/17 00:01:10;;;;;;;13.33;9.03;;;;;;;;;;5011751;28;20430;-57
2023/06/17 00:03:36;;;;;;;10.53;9.43;;;;;;;;;;5011805;28;20413;-57
2023/06/17 00:06:02;;;;;;;14.10;9.17;;;;;;;;;;5013624;28;20442;-58
2023/06/17 00:08:30;;;;;;;11.20;8.27;;;;;;;;;;5042493;23;20500;-57
2023/06/17 00:10:56;;;;;;;8.73;8.03;;;;;;;;;;5075465;28;20442;-57
2023/06/17 00:13:22;;;;;;;9.27;8.43;;;;;;;;;;5075505;28;20406;-58
2023/06/17 00:15:56;;;;;;;9.20;8.30;;;;;;;;;;5075458;28;20398;-58
2023/06/17 00:18:24;;;;;;;9.47;8.57;;;;;;;;;;5075568;28;20450;-58
2023/06/17 00:20:53;;;;;;;9.67;8.77;;;;;;;;;;5075420;28;20423;-57
2023/06/17 00:23:23;;;;;;;11.17;9.37;;;;;;;;;;5074960;28;20453;-58
2023/06/17 00:25:49;;;;;;;9.40;8.60;;;;;;;;;;5075067;28;20431;-58
2023/06/17 00:28:16;;;;;;;9.43;8.43;;;;;;;;;;5074978;28;20418;-57
2023/06/17 00:30:46;;;;;;;11.67;8.27;;;;;;;;;;5073500;28;20448;-58
2023/06/17 00:33:12;;;;;;;10.77;9.10;;;;;;;;;;5073639;28;20473;-62
2023/06/17 00:35:38;;;;;;;10.10;9.13;;;;;;;;;;5074759;28;20452;-60
2023/06/17 00:38:04;;;;;;;9.30;8.50;;;;;;;;;;5074779;28;20465;-60
2023/06/17 00:40:30;;;;;;;20.00;9.80;;;;;;;;;;5074687;28;20437;-60
2023/06/17 00:42:56;;;;;;;9.93;9.00;;;;;;;;;;5074769;28;20413;-60
2023/06/17 00:45:22;;;;;;;10.00;9.10;;;;;;;;;;5074669;28;20410;-59
2023/06/17 00:47:48;;;;;;;9.60;8.80;;;;;;;;;;5074627;28;20741;-60
2023/06/17 00:50:15;;;;;;;10.87;9.80;;;;;;;;;;5074477;28;20433;-59
2023/06/17 00:52:42;;;;;;;9.70;8.80;;;;;;;;;;5074778;28;20414;-59
2023/06/17 00:55:11;;;;;;;10.10;9.10;;;;;;;;;;5074425;28;20443;-59
2023/06/17 00:57:38;;;;;;;10.80;9.70;;;;;;;;;;5074414;28;20453;-60
2023/06/17 01:00:06;;;;;;;10.10;9.17;;;;;;;;;;5074439;28;20481;-60
2023/06/17 01:02:32;;;;;;;12.93;9.60;;;;;;;;;;5074389;28;20497;-60
2023/06/17 01:04:58;;;;;;;9.73;8.57;;;;;;;;;;5074455;28;20472;-59
2023/06/17 01:07:45;;;;;;;10.67;9.67;;;;;;;;;;5074426;28;20410;-59
2023/06/17 01:10:17;;;;;;;9.97;9.17;;;;;;;;;;5074264;28;20451;-59
2023/06/17 01:12:49;;;;;;;12.43;8.77;;;;;;;;;;5074223;28;20394;-59
2023/06/17 01:15:20;;;;;;;12.27;9.53;;;;;;;;;;5074072;28;20430;-59
2023/06/17 01:17:47;;;;;;;10.10;9.10;;;;;;;;;;5072986;28;20471;-60
2023/06/17 01:20:13;;;;;;;11.83;9.20;;;;;;;;;;5074005;28;20448;-60
2023/06/17 01:22:40;;;;;;;10.73;9.77;;;;;;;;;;5073984;28;20915;-60
2023/06/17 01:25:08;;;;;;;9.77;8.70;;;;;;;;;;5074178;28;20521;-59
2023/06/17 01:27:35;;;;;;;9.77;8.97;;;;;;;;;;5073764;28;20902;-60
2023/06/17 01:30:01;;;;;;;10.50;9.50;;;;;;;;;;5073739;28;20417;-59
2023/06/17 01:32:27;;;;;;;10.20;9.20;;;;;;;;;;5073707;28;20504;-59
2023/06/17 01:34:59;;;;;;;10.20;9.20;;;;;;;;;;5073609;28;20413;-60
2023/06/17 01:37:47;;;;;;;9.60;8.83;;;;;;;;;;5073520;28;20861;-60
2023/06/17 01:40:13;;;;;;;11.90;10.80;;;;;;;;;;5073481;28;20555;-59
2023/06/17 01:42:42;;;;;;;11.30;9.63;;;;;;;;;;5073510;28;20414;-60
2023/06/17 01:45:08;;;;;;;10.67;9.70;;;;;;;;;;5073441;28;20430;-60
2023/06/17 01:47:37;;;;;;;10.93;9.77;;;;;;;;;;5073427;28;20409;-60
2023/06/17 01:50:04;;;;;;;13.47;10.13;;;;;;;;;;5073298;28;20434;-59
2023/06/17 01:52:30;;;;;;;11.33;9.90;;;;;;;;;;5073490;28;20496;-59
2023/06/17 01:54:57;;;;;;;10.47;9.47;;;;;;;;;;5073368;28;20504;-59
2023/06/17 01:57:23;;;;;;;10.83;9.93;;;;;;;;;;5073519;28;20465;-60
2023/06/17 01:59:49;;;;;;;11.97;10.27;;;;;;;;;;5073435;28;20423;-59
2023/06/17 02:02:15;;;;;;;11.73;9.57;;;;;;;;;;5073639;28;20472;-60
2023/06/17 02:04:44;;;;;;;9.77;8.87;;;;;;;;;;5073236;28;20430;-60
2023/06/17 02:07:10;;;;;;;10.47;9.37;;;;;;;;;;5073194;28;20507;-60
2023/06/17 02:09:37;;;;;;;9.40;8.60;;;;;;;;;;5073149;28;20530;-60
2023/06/17 02:12:04;;;;;;;11.77;9.43;;;;;;;;;;5073058;28;20419;-59
2023/06/17 02:14:33;;;;;;;10.23;9.23;;;;;;;;;;5073022;28;20428;-60
2023/06/17 02:16:59;;;;;;;9.50;8.67;;;;;;;;;;5071626;28;20471;-61
2023/06/17 02:19:28;;;;;;;10.30;9.30;;;;;;;;;;5073056;28;20418;-60
2023/06/17 02:21:54;;;;;;;10.20;9.20;;;;;;;;;;5072847;28;20425;-60
2023/06/17 02:24:21;;;;;;;10.43;9.10;;;;;;;;;;5072870;28;20463;-60
2023/06/17 02:26:49;;;;;;;10.97;9.87;;;;;;;;;;5072881;28;20531;-59
2023/06/17 02:29:17;;;;;;;10.27;9.27;;;;;;;;;;5072585;28;20446;-60
2023/06/17 02:31:43;;;;;;;10.47;9.53;;;;;;;;;;5072778;28;20431;-60
2023/06/17 02:34:09;;;;;;;11.03;9.93;;;;;;;;;;5072967;28;20755;-60
2023/06/17 02:36:39;;;;;;;10.10;9.20;;;;;;;;;;5071371;28;20428;-59
2023/06/17 02:39:05;;;;;;;10.00;8.73;;;;;;;;;;5072652;28;20411;-60
2023/06/17 02:41:31;;;;;;;10.23;9.43;;;;;;;;;;5072697;28;20432;-60
2023/06/17 02:43:57;;;;;;;9.60;8.70;;;;;;;;;;5072689;28;20445;-60
2023/06/17 02:46:25;;;;;;;9.63;8.83;;;;;;;;;;5072580;28;20435;-59
2023/06/17 02:48:51;;;;;;;10.60;8.80;;;;;;;;;;5072497;28;20420;-59
2023/06/17 02:51:17;;;;;;;16.43;9.27;;;;;;;;;;5072566;28;20413;-59
2023/06/17 02:53:43;;;;;;;10.80;9.90;;;;;;;;;;5071151;28;20481;-60
2023/06/17 02:56:09;;;;;;;10.30;8.97;;;;;;;;;;5072762;28;20836;-60
2023/06/17 02:58:38;;;;;;;9.97;9.10;;;;;;;;;;5072476;28;20800;-59
2023/06/17 03:01:07;;;;;;;10.67;9.70;;;;;;;;;;5071186;28;20523;-59
2023/06/17 03:03:36;;;;;;;10.93;9.77;;;;;;;;;;5072518;28;20432;-60
2023/06/17 03:06:05;;;;;;;10.93;9.90;;;;;;;;;;5072293;28;20442;-60
2023/06/17 03:08:32;;;;;;;10.63;9.53;;;;;;;;;;5072280;28;20787;-60
2023/06/17 03:10:59;;;;;;;11.33;9.77;;;;;;;;;;5072504;28;20437;-60
2023/06/17 03:13:28;;;;;;;13.47;12.07;;;;;;;;;;5072451;28;20440;-60
2023/06/17 03:15:54;;;;;;;13.10;11.80;;;;;;;;;;5072314;28;20927;-60
2023/06/17 03:18:21;;;;;;;11.27;10.27;;;;;;;;;;5072132;28;20466;-60
2023/06/17 03:20:47;;;;;;;11.20;10.03;;;;;;;;;;5072268;28;20442;-60
2023/06/17 03:23:15;;;;;;;11.60;10.60;;;;;;;;;;5072321;28;20402;-60
2023/06/17 03:25:41;;;;;;;10.80;9.70;;;;;;;;;;5071005;28;20430;-60
2023/06/17 03:28:07;;;;;;;11.83;10.20;;;;;;;;;;5072187;28;20430;-60
2023/06/17 03:30:33;;;;;;;12.00;9.80;;;;;;;;;;5072222;28;20428;-59
2023/06/17 03:32:59;;;;;;;10.13;9.33;;;;;;;;;;5072160;28;20411;-60
2023/06/17 03:35:27;;;;;;;10.97;9.97;;;;;;;;;;5072088;28;20485;-60
2023/06/17 03:37:58;;;;;;;13.13;9.90;;;;;;;;;;5072043;28;20465;-60
2023/06/17 03:40:24;;;;;;;10.73;9.53;;;;;;;;;;5074520;28;20399;-60
2023/06/17 03:42:50;;;;;;;9.90;9.00;;;;;;;;;;5075965;28;20794;-60
2023/06/17 03:45:18;;;;;;;11.53;10.33;;;;;;;;;;5075951;28;20451;-60
2023/06/17 03:47:46;;;;;;;9.90;9.00;;;;;;;;;;5075837;28;20499;-60
2023/06/17 03:50:13;;;;;;;10.63;9.73;;;;;;;;;;5076015;28;20774;-60
2023/06/17 03:52:39;;;;;;;10.40;9.50;;;;;;;;;;5075736;28;20410;-59
2023/06/17 03:55:08;;;;;;;10.57;9.67;;;;;;;;;;5075650;28;20557;-60
2023/06/17 03:57:36;;;;;;;11.53;9.77;;;;;;;;;;5074530;28;20569;-60
2023/06/17 04:00:04;;;;;;;10.53;9.63;;;;;;;;;;5075696;28;20417;-60
2023/06/17 04:02:30;;;;;;;9.97;9.13;;;;;;;;;;5075395;28;20920;-60
2023/06/17 04:04:56;;;;;;;10.53;9.63;;;;;;;;;;5075673;28;20405;-60
2023/06/17 04:07:22;;;;;;;10.47;9.47;;;;;;;;;;5075423;28;20491;-60
2023/06/17 04:09:48;;;;;;;11.13;10.23;;;;;;;;;;5075379;28;20431;-60
2023/06/17 04:12:16;;;;;;;15.33;9.60;;;;;;;;;;5075364;28;20876;-60
2023/06/17 04:14:41;;;;;;;10.70;9.80;;;;;;;;;;5075699;28;20422;-60
2023/06/17 04:17:07;;;;;;;9.83;9.10;;;;;;;;;;5075234;28;20532;-60
2023/06/17 04:19:37;;;;;;;10.97;10.03;;;;;;;;;;5075423;28;20410;-60
2023/06/17 04:22:06;;;;;;;11.33;10.03;;;;;;;;;;5075250;28;20429;-60
2023/06/17 04:24:32;;;;;;;10.77;9.77;;;;;;;;;;5075155;28;20410;-60
2023/06/17 04:26:59;;;;;;;9.53;8.80;;;;;;;;;;5075111;28;20440;-60
2023/06/17 04:29:29;;;;;;;9.77;9.00;;;;;;;;;;5074005;28;20415;-60
2023/06/17 04:31:56;;;;;;;10.43;9.43;;;;;;;;;;5075050;28;20959;-60
2023/06/17 04:34:22;;;;;;;10.80;9.70;;;;;;;;;;5074927;28;20890;-60
2023/06/17 04:36:49;;;;;;;12.97;9.37;;;;;;;;;;5074694;28;20509;-60
2023/06/17 04:39:18;;;;;;;11.40;10.20;;;;;;;;;;5075153;28;20771;-60
2023/06/17 04:41:45;;;;;;;10.50;9.60;;;;;;;;;;5074809;28;20436;-60
2023/06/17 04:44:14;;;;;;;10.53;9.73;;;;;;;;;;5074792;28;20407;-60
2023/06/17 04:46:40;;;;;;;9.87;9.17;;;;;;;;;;5074942;28;20440;-60
2023/06/17 04:49:06;;;;;;;10.27;9.30;;;;;;;;;;5074745;28;20926;-60
2023/06/17 04:51:37;;;;;;;11.07;10.07;;;;;;;;;;5074524;28;20519;-60
2023/06/17 04:54:05;;;;;;;10.87;9.87;;;;;;;;;;5074917;28;20465;-60
2023/06/17 04:56:33;;;;;;;10.03;9.20;;;;;;;;;;5074397;28;20431;-60
2023/06/17 04:58:59;;;;;;;11.03;9.60;;;;;;;;;;5074605;28;20411;-60
2023/06/17 05:01:25;;;;;;;9.83;8.93;;;;;;;;;;5074453;28;20442;-60
2023/06/17 05:03:51;;;;;;;10.40;9.50;;;;;;;;;;5074529;28;20408;-60
2023/06/17 05:06:17;;;;;;;9.93;9.10;;;;;;;;;;5074357;28;20408;-60
2023/06/17 05:08:43;;;;;;;10.97;8.83;;;;;;;;;;5074174;28;20910;-60
2023/06/17 05:11:09;;;;;;;9.17;8.40;;;;;;;;;;5074995;28;20444;-60
2023/06/17 05:13:35;;;;;;;9.67;8.70;;;;;;;;;;5074826;28;20417;-60
2023/06/17 05:16:04;;;;;;;14.40;13.17;;;;;;;;;;5075433;28;20435;-60
2023/06/17 05:18:30;;;;;;;44.10;32.43;;;;;;;;;;5075029;28;20468;-60
2023/06/17 05:20:56;;;;;;;80.50;58.80;;;;;;;;;;5073052;28;20441;-60
2023/06/17 05:23:22;;;;;;;31.20;25.93;;;;;;;;;;5074513;28;20417;-60
2023/06/17 05:25:47;;;;;;;11.10;10.10;;;;;;;;;;5074742;28;20433;-60
2023/06/17 05:28:13;;;;;;;26.57;21.00;;;;;;;;;;5074296;28;20430;-60
2023/06/17 05:30:39;;;;;;;13.97;12.63;;;;;;;;;;5073810;28;20403;-60
2023/06/17 05:33:05;;;;;;;14.53;12.50;;;;;;;;;;5072814;28;20463;-60
2023/06/17 05:35:34;;;;;;;14.23;12.80;;;;;;;;;;5074180;28;20439;-59
2023/06/17 05:38:00;;;;;;;11.67;10.50;;;;;;;;;;5073773;28;20462;-59
2023/06/17 05:40:26;;;;;;;12.47;11.20;;;;;;;;;;5074155;28;20466;-60
2023/06/17 05:42:52;;;;;;;10.50;9.60;;;;;;;;;;5073729;28;20449;-60
2023/06/17 05:45:18;;;;;;;8.70;7.90;;;;;;;;;;5073696;28;20451;-60
2023/06/17 05:47:46;;;;;;;9.47;8.33;;;;;;;;;;5072124;28;20471;-60
2023/06/17 05:50:12;;;;;;;8.33;7.73;;;;;;;;;;5073896;28;20419;-60
2023/06/17 05:52:41;;;;;;;9.90;8.17;;;;;;;;;;5073521;28;20502;-60
2023/06/17 05:55:09;;;;;;;11.80;10.70;;;;;;;;;;5073636;28;20506;-60
2023/06/17 05:57:35;;;;;;;8.97;8.17;;;;;;;;;;5073600;28;20490;-60
2023/06/17 06:00:02;;;;;;;8.00;7.20;;;;;;;;;;5087119;22;20450;-60
2023/06/17 06:02:29;;;;;;;8.43;7.67;;;;;;;;;;5031573;28;20504;-60
2023/06/17 06:04:55;;;;;;;10.50;7.53;;;;;;;;;;5033463;28;20420;-60
2023/06/17 06:07:21;;;;;;;10.60;7.97;;;;;;;;;;5033317;28;20438;-60
2023/06/17 06:09:47;;;;;;;8.50;7.67;;;;;;;;;;5033243;28;20430;-60
2023/06/17 06:12:13;;;;;;;9.90;8.77;;;;;;;;;;5033390;28;20441;-60
2023/06/17 06:14:39;;;;;;;8.43;7.57;;;;;;;;;;5033152;28;20410;-60
2023/06/17 06:17:04;;;;;;;9.20;8.50;;;;;;;;;;5033072;28;20972;-60
2023/06/17 06:19:30;;;;;;;9.57;8.63;;;;;;;;;;5033229;28;20408;-60
2023/06/17 06:21:56;;;;;;;9.83;8.13;;;;;;;;;;5032966;28;20416;-60
2023/06/17 06:24:22;;;;;;;8.83;7.93;;;;;;;;;;5033312;28;20422;-60
2023/06/17 06:26:51;;;;;;;11.97;8.80;;;;;;;;;;5032891;28;20860;-60
2023/06/17 06:29:19;;;;;;;9.33;8.37;;;;;;;;;;5033191;28;20402;-60
2023/06/17 06:31:45;;;;;;;8.97;8.17;;;;;;;;;;5033077;28;20426;-60
2023/06/17 06:34:13;;;;;;;9.07;8.17;;;;;;;;;;5032963;28;20434;-60
2023/06/17 06:36:39;;;;;;;8.63;7.83;;;;;;;;;;5032949;28;20446;-60
2023/06/17 06:39:05;;;;;;;9.87;9.00;;;;;;;;;;5032977;28;20439;-60
2023/06/17 06:41:33;;;;;;;9.10;8.40;;;;;;;;;;5048153;28;20870;-60
2023/06/17 06:43:59;;;;;;;9.80;8.93;;;;;;;;;;5033130;28;20465;-60
2023/06/17 06:46:26;;;;;;;9.47;8.73;;;;;;;;;;5033043;28;20416;-60
2023/06/17 06:48:52;;;;;;;8.90;8.20;;;;;;;;;;5032504;28;20443;-60
2023/06/17 06:51:20;;;;;;;9.30;8.60;;;;;;;;;;5032754;28;20427;-60
2023/06/17 06:53:48;;;;;;;10.57;8.50;;;;;;;;;;5032725;28;20442;-60
2023/06/17 06:56:14;;;;;;;27.40;19.87;;;;;;;;;;5032673;28;20412;-60
2023/06/17 06:58:40;;;;;;;10.60;9.60;;;;;;;;;;5032302;28;20496;-60
2023/06/17 07:01:06;;;;;;;9.70;8.70;;;;;;;;;;5032551;28;20434;-60
2023/06/17 07:03:32;;;;;;;8.27;7.60;;;;;;;;;;5032723;28;20501;-60
2023/06/17 07:05:58;;;;;;;7.90;7.30;;;;;;;;;;5032575;28;20899;-60
2023/06/17 07:08:24;;;;;;;10.37;8.20;;;;;;;;;;5032509;28;20441;-60
2023/06/17 07:10:50;;;;;;;8.13;7.33;;;;;;;;;;5032475;28;20826;-60
2023/06/17 07:13:17;;;;;;;7.97;7.37;;;;;;;;;;5032483;28;20831;-60
2023/06/17 07:15:44;;;;;;;9.87;8.30;;;;;;;;;;5035238;28;20464;-60
2023/06/17 07:18:11;;;;;;;8.83;7.67;;;;;;;;;;5036192;28;20479;-60
2023/06/17 07:20:37;;;;;;;7.03;6.63;;;;;;;;;;5036361;28;20489;-60
2023/06/17 07:23:06;;;;;;;7.80;7.17;;;;;;;;;;5036496;28;20437;-60
2023/06/17 07:25:32;;;;;;;8.37;7.57;;;;;;;;;;5036395;28;20882;-60
2023/06/17 07:27:59;;;;;;;13.13;7.53;;;;;;;;;;5036361;28;20438;-60
2023/06/17 07:30:28;;;;;;;13.70;8.30;;;;;;;;;;5036240;28;20498;-60
2023/06/17 07:32:56;;;;;;;9.80;8.90;;;;;;;;;;5036078;28;20807;-60
2023/06/17 07:35:22;;;;;;;7.67;6.87;;;;;;;;;;5035991;28;20908;-60
2023/06/17 07:37:53;;;;;;;7.93;7.37;;;;;;;;;;5035974;28;20473;-60
2023/06/17 07:40:21;;;;;;;11.73;7.30;;;;;;;;;;5036042;28;20874;-60
2023/06/17 07:42:47;;;;;;;7.50;7.00;;;;;;;;;;5035889;28;20491;-60
2023/06/17 07:45:13;;;;;;;10.10;7.67;;;;;;;;;;5035765;28;20410;-60
2023/06/17 07:47:39;;;;;;;9.03;8.27;;;;;;;;;;5035917;28;20439;-60
2023/06/17 07:50:05;;;;;;;8.20;7.50;;;;;;;;;;5035666;28;20481;-60
2023/06/17 07:52:34;;;;;;;13.33;8.20;;;;;;;;;;5035591;28;20476;-60
2023/06/17 07:55:02;;;;;;;10.13;7.60;;;;;;;;;;5035539;28;20952;-61
2023/06/17 07:57:31;;;;;;;7.30;6.70;;;;;;;;;;5035365;28;20529;-61
2023/06/17 07:59:57;;;;;;;7.70;6.93;;;;;;;;;;5035310;28;20839;-61
2023/06/17 08:02:23;;;;;;;12.20;9.63;;;;;;;;;;5035597;28;20404;-61
2023/06/17 08:04:50;;;;;;;7.97;7.37;;;;;;;;;;5035304;28;20448;-61
2023/06/17 08:07:16;;;;;;;7.67;7.00;;;;;;;;;;5035336;28;20418;-61
2023/06/17 08:09:42;;;;;;;13.13;7.80;;;;;;;;;;5035549;28;21174;-61
2023/06/17 08:12:08;;;;;;;7.93;7.13;;;;;;;;;;5035296;28;20422;-61
2023/06/17 08:14:37;;;;;;;9.03;7.70;;;;;;;;;;5035458;28;20561;-61
2023/06/17 08:17:03;;;;;;;10.23;7.93;;;;;;;;;;5035329;28;20560;-61
2023/06/17 08:19:29;;;;;;;7.47;6.90;;;;;;;;;;5035185;28;20796;-61
2023/06/17 08:21:57;;;;;;;7.87;7.27;;;;;;;;;;5035105;28;20480;-61
2023/06/17 08:24:24;;;;;;;9.60;7.60;;;;;;;;;;5035513;28;20436;-61
2023/06/17 08:26:51;;;;;;;7.70;7.20;;;;;;;;;;5034703;28;20405;-61
2023/06/17 08:29:17;;;;;;;11.23;7.80;;;;;;;;;;5035253;28;20772;-61
2023/06/17 08:31:44;;;;;;;7.63;6.17;;;;;;;;;;5035053;28;20480;-61
2023/06/17 08:34:11;;;;;;;9.53;6.97;;;;;;;;;;5035033;28;20435;-61
2023/06/17 08:36:40;;;;;;;11.97;6.90;;;;;;;;;;5034933;28;20404;-61
2023/06/17 08:39:06;;;;;;;7.73;7.00;;;;;;;;;;5034983;28;20491;-61
2023/06/17 08:41:38;;;;;;;7.63;6.93;;;;;;;;;;5050284;28;20424;-61
2023/06/17 08:44:06;;;;;;;6.97;6.50;;;;;;;;;;5035193;28;20425;-61
2023/06/17 08:46:32;;;;;;;10.30;7.10;;;;;;;;;;5034818;28;20914;-61
2023/06/17 08:48:58;;;;;;;7.97;6.33;;;;;;;;;;5034475;28;20442;-61
2023/06/17 08:51:25;;;;;;;7.80;6.83;;;;;;;;;;5034718;28;20443;-61
2023/06/17 08:53:51;;;;;;;7.83;7.23;;;;;;;;;;5034721;28;20440;-61
2023/06/17 08:56:18;;;;;;;9.40;7.63;;;;;;;;;;5033154;28;20501;-61
2023/06/17 08:58:47;;;;;;;7.83;7.03;;;;;;;;;;5034520;28;20470;-61
2023/06/17 09:01:13;;;;;;;10.13;7.20;;;;;;;;;;5033234;28;20497;-61
2023/06/17 09:03:41;;;;;;;7.23;6.53;;;;;;;;;;5034912;28;20484;-61
2023/06/17 09:06:20;;;;;;;10.83;7.00;;;;;;;;;;5034902;28;20925;-61
2023/06/17 09:08:46;;;;;;;7.53;6.70;;;;;;;;;;5034445;28;20440;-61
2023/06/17 09:11:12;;;;;;;9.87;6.80;;;;;;;;;;5034313;28;20944;-61
2023/06/17 09:13:40;;;;;;;6.33;5.90;;;;;;;;;;5034141;28;20446;-61
2023/06/17 09:16:06;;;;;;;9.27;6.97;;;;;;;;;;5034401;28;20396;-61
2023/06/17 09:18:32;;;;;;;6.97;6.40;;;;;;;;;;5034117;28;20561;-61
2023/06/17 09:21:02;;;;;;;6.70;6.13;;;;;;;;;;5034203;28;20439;-61
2023/06/17 09:23:28;;;;;;;7.80;6.67;;;;;;;;;;5034265;28;20517;-60
2023/06/17 09:26:03;;;;;;;7.03;6.33;;;;;;;;;;5034410;28;20390;-61
2023/06/17 09:28:30;;;;;;;8.43;6.80;;;;;;;;;;5034125;28;20434;-61
2023/06/17 09:30:59;;;;;;;7.63;6.30;;;;;;;;;;5034039;28;20493;-61
2023/06/17 09:33:28;;;;;;;7.60;6.90;;;;;;;;;;5033918;28;20439;-61
2023/06/17 09:36:01;;;;;;;9.57;6.30;;;;;;;;;;5034196;28;20409;-61
2023/06/17 09:38:27;;;;;;;7.50;6.77;;;;;;;;;;5033093;28;20472;-61
2023/06/17 09:40:54;;;;;;;14.10;7.83;;;;;;;;;;5033993;28;20399;-61
2023/06/17 09:43:23;;;;;;;10.10;8.90;;;;;;;;;;5032680;28;20469;-61
2023/06/17 09:45:49;;;;;;;6.70;6.20;;;;;;;;;;5034382;28;20883;-61
2023/06/17 09:48:17;;;;;;;7.77;5.90;;;;;;;;;;5033650;28;20435;-61
2023/06/17 09:50:43;;;;;;;7.00;6.37;;;;;;;;;;5033621;28;20481;-61
2023/06/17 09:53:09;;;;;;;6.30;5.70;;;;;;;;;;5033636;28;20399;-61
2023/06/17 09:55:38;;;;;;;6.30;5.90;;;;;;;;;;5033534;28;20438;-60
2023/06/17 09:58:04;;;;;;;6.30;5.80;;;;;;;;;;5033602;28;20823;-61
2023/06/17 10:00:31;;;;;;;6.33;5.93;;;;;;;;;;5033438;28;20515;-61
2023/06/17 10:02:57;;;;;;;5.67;5.17;;;;;;;;;;5033763;28;20435;-61
2023/06/17 10:05:25;;;;;;;9.00;5.63;;;;;;;;;;5033388;28;20430;-61
2023/06/17 10:07:53;;;;;;;7.53;5.83;;;;;;;;;;5033310;28;20416;-61
2023/06/17 10:10:20;;;;;;;6.37;5.17;;;;;;;;;;5033358;28;20451;-61
2023/06/17 10:12:47;;;;;;;5.10;4.80;;;;;;;;;;5032089;28;20521;-60
2023/06/17 10:15:18;;;;;;;5.23;4.17;;;;;;;;;;5033127;28;20420;-61
2023/06/17 10:17:45;;;;;;;4.93;4.67;;;;;;;;;;5033220;28;20462;-61
2023/06/17 10:20:12;;;;;;;5.93;5.30;;;;;;;;;;5033048;28;20435;-60
2023/06/17 10:22:38;;;;;;;5.50;5.20;;;;;;;;;;5033015;28;20428;-61
2023/06/17 10:25:09;;;;;;;6.93;5.20;;;;;;;;;;5033028;28;20432;-61
2023/06/17 10:27:38;;;;;;;5.43;5.20;;;;;;;;;;5032915;28;20834;-61
2023/06/17 10:30:23;;;;;;;5.13;4.70;;;;;;;;;;5032966;28;20436;-61
2023/06/17 10:32:53;;;;;;;5.23;4.93;;;;;;;;;;5033103;28;20438;-61
2023/06/17 10:35:20;;;;;;;4.80;4.40;;;;;;;;;;5048432;28;20526;-61
2023/06/17 10:37:47;;;;;;;4.37;4.17;;;;;;;;;;5031673;28;20467;-61
2023/06/17 10:40:19;;;;;;;5.17;4.67;;;;;;;;;;5032940;28;20412;-61
2023/06/17 10:42:53;;;;;;;4.83;4.63;;;;;;;;;;5032759;28;20416;-61
2023/06/17 10:45:19;;;;;;;4.13;4.03;;;;;;;;;;5033008;28;20471;-61
2023/06/17 10:47:45;;;;;;;4.20;4.10;;;;;;;;;;5032635;28;20420;-60
2023/06/17 10:50:12;;;;;;;4.50;4.27;;;;;;;;;;5032568;28;20436;-61
2023/06/17 10:52:41;;;;;;;4.80;4.50;;;;;;;;;;5033606;28;20458;-61
2023/06/17 10:55:09;;;;;;;4.63;4.33;;;;;;;;;;5032596;28;20519;-61
2023/06/17 10:57:36;;;;;;;4.57;4.17;;;;;;;;;;5032984;28;20628;-61
2023/06/17 11:00:08;;;;;;;5.60;5.10;;;;;;;;;;5031194;28;20443;-61
2023/06/17 11:02:34;;;;;;;4.30;4.20;;;;;;;;;;5032551;28;20400;-61
2023/06/17 11:05:01;;;;;;;5.90;5.27;;;;;;;;;;5031253;28;20475;-61
2023/06/17 11:07:27;;;;;;;5.00;4.70;;;;;;;;;;5032764;28;20428;-61
2023/06/17 11:09:53;;;;;;;4.60;4.50;;;;;;;;;;5032611;28;20440;-61
2023/06/17 11:12:19;;;;;;;5.00;4.70;;;;;;;;;;5032575;28;20403;-61
2023/06/17 11:14:45;;;;;;;4.90;4.50;;;;;;;;;;5032263;28;20792;-61
2023/06/17 11:17:12;;;;;;;5.70;5.20;;;;;;;;;;5032117;28;20954;-61
2023/06/17 11:19:37;;;;;;;5.27;4.97;;;;;;;;;;5032161;28;20472;-61
2023/06/17 11:22:04;;;;;;;4.50;4.30;;;;;;;;;;5032432;28;20400;-61
2023/06/17 11:24:30;;;;;;;5.83;5.33;;;;;;;;;;5032129;28;20431;-61
2023/06/17 11:26:57;;;;;;;5.47;5.17;;;;;;;;;;5032208;28;20427;-61
2023/06/17 11:29:23;;;;;;;4.53;4.33;;;;;;;;;;5032325;28;20458;-61
2023/06/17 11:31:49;;;;;;;5.10;4.80;;;;;;;;;;5032009;28;20473;-61
2023/06/17 11:34:16;;;;;;;8.50;4.50;;;;;;;;;;5032022;28;20833;-61
2023/06/17 11:36:42;;;;;;;4.80;4.50;;;;;;;;;;5032037;28;20482;-61
2023/06/17 11:39:09;;;;;;;5.90;4.73;;;;;;;;;;5032424;28;20400;-61
2023/06/17 11:41:35;;;;;;;5.13;4.87;;;;;;;;;;5032390;28;20396;-61
2023/06/17 11:44:02;;;;;;;4.87;4.47;;;;;;;;;;5032133;28;20558;-61
2023/06/17 11:46:28;;;;;;;4.97;4.77;;;;;;;;;;5032079;28;20420;-61
2023/06/17 11:48:56;;;;;;;5.27;4.97;;;;;;;;;;5032333;28;20781;-61
2023/06/17 11:51:22;;;;;;;4.73;4.43;;;;;;;;;;5032256;28;20503;-61
2023/06/17 11:53:49;;;;;;;7.17;4.60;;;;;;;;;;5031988;28;20420;-60
2023/06/17 11:56:16;;;;;;;4.67;4.37;;;;;;;;;;5032605;28;20440;-61
2023/06/17 11:58:47;;;;;;;5.67;5.27;;;;;;;;;;5032048;28;20969;-61
2023/06/17 12:01:14;;;;;;;37.97;33.87;;;;;;;;;;5033204;28;20451;-61
2023/06/17 12:03:45;;;;;;;5.50;5.10;;;;;;;;;;5035735;28;20498;-61
2023/06/17 12:06:17;;;;;;;5.17;4.67;;;;;;;;;;5035836;28;20403;-61
2023/06/17 12:08:45;;;;;;;6.33;4.60;;;;;;;;;;5034082;28;20435;-61
2023/06/17 12:11:25;;;;;;;4.67;4.47;;;;;;;;;;5035514;28;20443;-61
2023/06/17 12:13:51;;;;;;;4.97;4.40;;;;;;;;;;5035421;28;20415;-61
2023/06/17 12:16:33;;;;;;;4.37;4.17;;;;;;;;;;5035312;28;20463;-61
2023/06/17 12:18:59;;;;;;;5.10;4.60;;;;;;;;;;5035214;28;20478;-61
2023/06/17 12:21:25;;;;;;;5.27;5.03;;;;;;;;;;5035105;28;20785;-61
2023/06/17 12:23:54;;;;;;;4.50;4.30;;;;;;;;;;5034281;28;20941;-61
2023/06/17 12:26:23;;;;;;;5.03;4.73;;;;;;;;;;5035266;28;20459;-61
2023/06/17 12:28:49;;;;;;;6.33;4.10;;;;;;;;;;5035119;28;20416;-61
2023/06/17 12:31:18;;;;;;;10.67;10.03;;;;;;;;;;5035099;28;20442;-62
2023/06/17 12:33:45;;;;;;;5.30;5.00;;;;;;;;;;5035074;28;20427;-61
2023/06/17 12:36:11;;;;;;;4.63;4.27;;;;;;;;;;5035127;28;20404;-62
2023/06/17 12:38:37;;;;;;;4.60;4.40;;;;;;;;;;5034917;28;20811;-61
2023/06/17 12:41:04;;;;;;;4.33;4.10;;;;;;;;;;5034888;28;20428;-61
2023/06/17 12:43:30;;;;;;;4.63;4.43;;;;;;;;;;5034979;28;20462;-61
2023/06/17 12:45:58;;;;;;;4.20;4.10;;;;;;;;;;5034630;28;20436;-61
2023/06/17 12:48:24;;;;;;;4.83;4.53;;;;;;;;;;5034852;28;20779;-62
2023/06/17 12:50:50;;;;;;;4.10;3.90;;;;;;;;;;5034648;28;20931;-61
2023/06/17 12:53:16;;;;;;;5.00;4.60;;;;;;;;;;5034666;28;20491;-61
2023/06/17 12:55:42;;;;;;;4.90;4.60;;;;;;;;;;5034744;28;20676;-61
2023/06/17 12:58:10;;;;;;;5.30;4.90;;;;;;;;;;5034518;28;20471;-61
2023/06/17 13:00:37;;;;;;;5.67;4.70;;;;;;;;;;5034496;28;20913;-61
2023/06/17 13:03:03;;;;;;;5.20;4.63;;;;;;;;;;5034393;28;20416;-61
2023/06/17 13:05:29;;;;;;;4.80;4.40;;;;;;;;;;5034365;28;20436;-61
2023/06/17 13:07:57;;;;;;;5.07;4.70;;;;;;;;;;5034183;28;20420;-61
2023/06/17 13:10:26;;;;;;;5.50;4.47;;;;;;;;;;5034273;28;20440;-61
2023/06/17 13:12:52;;;;;;;4.97;4.77;;;;;;;;;;5034138;28;20412;-61
2023/06/17 13:15:18;;;;;;;4.60;4.27;;;;;;;;;;5034284;28;20436;-61
2023/06/17 13:17:44;;;;;;;4.90;4.50;;;;;;;;;;5032871;28;20566;-61
2023/06/17 13:20:13;;;;;;;4.17;3.97;;;;;;;;;;5034216;28;20439;-61
2023/06/17 13:22:39;;;;;;;4.50;4.40;;;;;;;;;;5034458;28;20435;-61
2023/06/17 13:25:05;;;;;;;4.70;4.47;;;;;;;;;;5034018;28;20412;-61
2023/06/17 13:27:32;;;;;;;5.77;5.17;;;;;;;;;;5034166;28;20420;-61
2023/06/17 13:29:58;;;;;;;4.57;4.30;;;;;;;;;;5033910;28;20970;-61
2023/06/17 13:32:25;;;;;;;4.60;4.20;;;;;;;;;;5033936;28;20476;-61
2023/06/17 13:34:51;;;;;;;8.00;5.17;;;;;;;;;;5033992;28;20876;-61
2023/06/17 13:37:19;;;;;;;4.63;4.27;;;;;;;;;;5033660;28;20455;-61
2023/06/17 13:39:45;;;;;;;5.30;4.80;;;;;;;;;;5033602;28;20425;-61
2023/06/17 13:42:14;;;;;;;5.37;5.00;;;;;;;;;;5033926;28;20495;-61
2023/06/17 13:44:44;;;;;;;5.50;5.20;;;;;;;;;;5033760;28;20939;-61
2023/06/17 13:47:10;;;;;;;8.93;4.90;;;;;;;;;;5033731;28;20400;-61
2023/06/17 13:49:36;;;;;;;5.10;4.70;;;;;;;;;;5033549;28;20428;-61
2023/06/17 13:52:05;;;;;;;5.00;4.70;;;;;;;;;;5033605;28;20822;-61
2023/06/17 13:54:31;;;;;;;5.43;4.93;;;;;;;;;;5033736;28;20420;-61
2023/06/17 13:57:00;;;;;;;5.00;4.80;;;;;;;;;;5032168;28;20431;-61
2023/06/17 13:59:28;;;;;;;5.13;4.83;;;;;;;;;;5033481;28;20423;-61
2023/06/17 14:01:54;;;;;;;5.27;5.00;;;;;;;;;;5033214;28;20455;-61
2023/06/17 14:04:20;;;;;;;5.00;4.60;;;;;;;;;;5033366;28;20533;-61
2023/06/17 14:06:46;;;;;;;5.43;5.17;;;;;;;;;;5033105;28;20407;-61
2023/06/17 14:09:14;;;;;;;5.03;4.90;;;;;;;;;;5033475;28;20507;-61
2023/06/17 14:11:40;;;;;;;5.00;4.60;;;;;;;;;;5033168;28;20432;-61
2023/06/17 14:14:06;;;;;;;4.43;4.30;;;;;;;;;;5031742;28;20443;-61
2023/06/17 14:16:33;;;;;;;5.43;5.00;;;;;;;;;;5033161;28;20503;-61
2023/06/17 14:19:01;;;;;;;4.80;4.70;;;;;;;;;;5032767;28;20513;-61
2023/06/17 14:21:27;;;;;;;4.60;4.40;;;;;;;;;;5032962;28;20523;-61
2023/06/17 14:24:04;;;;;;;5.30;4.97;;;;;;;;;;5031278;28;20527;-61
2023/06/17 14:26:30;;;;;;;4.50;4.30;;;;;;;;;;5032905;28;20442;-61
2023/06/17 14:28:56;;;;;;;5.20;4.80;;;;;;;;;;5032838;28;20416;-61
2023/06/17 14:31:22;;;;;;;4.93;4.73;;;;;;;;;;5032855;28;20440;-61
2023/06/17 14:33:48;;;;;;;5.67;5.17;;;;;;;;;;5032633;28;20416;-61
2023/06/17 14:36:14;;;;;;;4.83;4.40;;;;;;;;;;5032560;28;20477;-61